createdAt,value
2022-11-18T00:01:22.916Z,86.95
2022-11-18T00:03:53.004Z,87.50
2022-11-18T00:06:26.680Z,87.78
2022-11-18T00:08:55.648Z,87.72
2022-11-18T00:11:45.078Z,87.54
2022-11-18T00:14:19.167Z,87.38
2022-11-18T00:16:51.027Z,86.98
2022-11-18T00:19:21.135Z,87.00
2022-11-18T00:21:49.761Z,87.34
2022-11-18T00:24:18.153Z,87.03
2022-11-18T00:26:46.734Z,87.25
2022-11-18T00:29:14.485Z,86.94
2022-11-18T00:31:42.615Z,86.86
2022-11-18T00:34:13.867Z,86.99
2022-11-18T00:36:43.053Z,87.05
2022-11-18T00:39:13.459Z,87.03
2022-11-18T00:42:00.825Z,87.21
2022-11-18T00:44:28.189Z,88.03
2022-11-18T00:46:56.125Z,88.00
2022-11-18T00:49:24.470Z,87.55
2022-11-18T00:51:52.170Z,87.73
2022-11-18T00:54:19.806Z,87.39
2022-11-18T00:56:47.364Z,87.39
2022-11-18T00:59:14.667Z,87.23
2022-11-18T01:01:42.275Z,86.68
2022-11-18T01:04:09.468Z,86.69
2022-11-18T01:06:36.884Z,86.69
2022-11-18T01:09:04.336Z,86.34
2022-11-18T01:11:50.365Z,86.29
2022-11-18T01:14:18.127Z,86.64
2022-11-18T01:16:51.119Z,86.57
2022-11-18T01:19:19.334Z,86.88
2022-11-18T01:21:47.518Z,86.59
2022-11-18T01:24:14.846Z,86.77
2022-11-18T01:26:42.586Z,86.52
2022-11-18T01:29:10.394Z,86.60
2022-11-18T01:31:50.178Z,86.50
2022-11-18T01:34:29.431Z,86.19
2022-11-18T01:36:58.624Z,86.08
2022-11-18T01:39:26.258Z,86.26
2022-11-18T01:41:53.774Z,85.96
2022-11-18T01:44:58.501Z,85.56
2022-11-18T01:47:40.923Z,85.46
2022-11-18T01:50:09.811Z,85.76
2022-11-18T01:52:40.225Z,85.94
2022-11-18T01:55:24.060Z,85.76
2022-11-18T01:57:59.492Z,85.75
2022-11-18T02:00:26.647Z,86.00
2022-11-18T02:02:54.485Z,86.30
2022-11-18T02:05:22.789Z,86.38
2022-11-18T02:07:51.458Z,86.72
2022-11-18T02:10:23.775Z,87.03
2022-11-18T02:12:54.417Z,86.99
2022-11-18T02:15:45.420Z,86.46
2022-11-18T02:18:56.731Z,86.61
2022-11-18T02:21:32.285Z,86.57
2022-11-18T02:24:27.320Z,86.27
2022-11-18T02:27:58.240Z,86.04
2022-11-18T02:30:26.423Z,86.14
2022-11-18T02:33:10.371Z,86.35
2022-11-18T02:35:46.915Z,86.81
2022-11-18T02:38:31.361Z,87.22
2022-11-18T02:41:08.160Z,87.84
2022-11-18T02:43:46.137Z,87.75
2022-11-18T02:46:24.012Z,87.88
2022-11-18T02:48:54.330Z,87.82
2022-11-18T02:51:28.536Z,87.90
2022-11-18T02:54:02.971Z,87.97
2022-11-18T02:56:33.135Z,88.10
2022-11-18T02:59:00.325Z,88.03
2022-11-18T03:01:32.578Z,87.90
2022-11-18T03:04:00.357Z,87.40
2022-11-18T03:06:55.937Z,86.99
2022-11-18T03:09:38.274Z,85.89
2022-11-18T03:12:18.848Z,86.01
2022-11-18T03:15:04.734Z,86.13
2022-11-18T03:18:28.400Z,86.21
2022-11-18T03:21:08.700Z,86.16
2022-11-18T03:23:52.129Z,86.33
2022-11-18T03:26:36.288Z,86.23
2022-11-18T03:29:18.983Z,85.86
2022-11-18T03:31:56.929Z,85.97
2022-11-18T03:34:49.611Z,86.21
2022-11-18T03:37:21.073Z,86.29
2022-11-18T03:39:59.300Z,86.42
2022-11-18T03:42:42.707Z,86.03
2022-11-18T03:45:25.330Z,85.76
2022-11-18T03:48:04.113Z,85.60
2022-11-18T03:50:40.722Z,85.86
2022-11-18T03:53:09.917Z,86.19
2022-11-18T03:55:44.758Z,86.64
2022-11-18T03:59:08.076Z,87.39
2022-11-18T04:01:56.255Z,87.91
2022-11-18T04:04:27.141Z,88.06
2022-11-18T04:07:27.156Z,88.68
2022-11-18T04:10:09.079Z,88.52
2022-11-18T04:12:46.082Z,88.93
2022-11-18T04:15:13.329Z,89.80
2022-11-18T04:17:43.162Z,89.72
2022-11-18T04:20:21.752Z,90.47
2022-11-18T04:22:49.457Z,91.05
2022-11-18T04:25:17.148Z,91.65
2022-11-18T04:27:44.614Z,90.84
2022-11-18T04:30:12.715Z,90.60
2022-11-18T04:32:42.295Z,91.35
2022-11-18T04:35:09.536Z,91.58
2022-11-18T04:37:37.045Z,91.20
2022-11-18T04:40:05.274Z,91.47
2022-11-18T04:42:32.946Z,91.21
2022-11-18T04:45:00.204Z,91.45
2022-11-18T04:47:27.658Z,91.30
2022-11-18T04:49:54.790Z,90.74
2022-11-18T04:52:22.413Z,90.07
2022-11-18T04:54:49.633Z,90.78
2022-11-18T04:57:17.100Z,90.69
2022-11-18T04:59:44.241Z,90.95
2022-11-18T05:02:12.760Z,91.27
2022-11-18T05:04:40.022Z,90.90
2022-11-18T05:07:08.040Z,90.93
2022-11-18T05:09:35.325Z,91.13
2022-11-18T05:12:21.260Z,91.65
2022-11-18T05:14:50.896Z,91.89
2022-11-18T05:17:19.465Z,91.18
2022-11-18T05:19:46.708Z,90.95
2022-11-18T05:22:15.800Z,91.58
2022-11-18T05:24:42.951Z,92.28
2022-11-18T05:27:11.774Z,92.20
2022-11-18T05:29:38.908Z,91.95
2022-11-18T05:32:06.476Z,92.01
2022-11-18T05:34:33.583Z,92.72
2022-11-18T05:37:01.064Z,93.14
2022-11-18T05:39:28.238Z,93.36
2022-11-18T05:42:13.957Z,93.67
2022-11-18T05:44:41.116Z,93.77
2022-11-18T05:47:08.697Z,94.03
2022-11-18T05:49:35.874Z,94.43
2022-11-18T05:52:03.570Z,94.24
2022-11-18T05:54:31.720Z,94.33
2022-11-18T05:56:59.241Z,93.88
2022-11-18T05:59:26.922Z,93.73
2022-11-18T06:02:13.121Z,93.35
2022-11-18T06:04:54.898Z,93.01
2022-11-18T06:07:41.882Z,93.36
2022-11-18T06:10:17.791Z,93.14
2022-11-18T06:12:49.847Z,92.90
2022-11-18T06:15:26.249Z,92.74
2022-11-18T06:18:23.324Z,91.88
2022-11-18T06:20:59.753Z,91.82
2022-11-18T06:23:35.718Z,91.71
2022-11-18T06:26:03.812Z,92.21
2022-11-18T06:28:31.714Z,91.20
2022-11-18T06:30:59.193Z,91.45
2022-11-18T06:33:26.647Z,91.72
2022-11-18T06:35:53.770Z,92.04
2022-11-18T06:38:25.138Z,92.19
2022-11-18T06:40:52.566Z,91.98
2022-11-18T06:43:38.681Z,91.83
2022-11-18T06:46:27.462Z,91.69
2022-11-18T06:48:55.006Z,91.64
2022-11-18T06:51:22.345Z,91.66
2022-11-18T06:53:50.218Z,91.20
2022-11-18T06:56:20.316Z,91.34
2022-11-18T06:58:52.517Z,90.72
2022-11-18T07:01:23.609Z,90.51
2022-11-18T07:03:52.225Z,91.20
2022-11-18T07:06:32.243Z,91.24
2022-11-18T07:09:07.175Z,91.68
2022-11-18T07:11:34.901Z,91.66
2022-11-18T07:14:02.643Z,91.30
2022-11-18T07:16:30.191Z,91.53
2022-11-18T07:18:57.807Z,91.66
2022-11-18T07:21:29.074Z,92.13
2022-11-18T07:23:57.235Z,92.33
2022-11-18T07:26:24.917Z,91.74
2022-11-18T07:28:53.898Z,91.64
2022-11-18T07:31:21.484Z,92.20
2022-11-18T07:33:50.019Z,92.62
2022-11-18T07:36:24.527Z,93.17
2022-11-18T07:38:53.100Z,92.21
2022-11-18T07:41:27.074Z,91.78
2022-11-18T07:44:00.538Z,91.80
2022-11-18T07:46:33.002Z,90.84
2022-11-18T07:49:04.056Z,90.77
2022-11-18T07:51:38.221Z,91.55
2022-11-18T07:54:12.004Z,91.61
2022-11-18T07:56:39.415Z,92.37
2022-11-18T07:59:07.835Z,95.34
2022-11-18T08:01:35.311Z,94.94
2022-11-18T08:04:13.129Z,91.87
2022-11-18T08:06:41.246Z,90.46
2022-11-18T08:09:09.654Z,90.35
2022-11-18T08:11:37.780Z,89.66
2022-11-18T08:14:05.545Z,89.74
2022-11-18T08:16:32.717Z,90.26
2022-11-18T08:19:01.014Z,89.51
2022-11-18T08:21:28.701Z,89.13
2022-11-18T08:23:58.198Z,88.86
2022-11-18T08:26:26.589Z,88.99
2022-11-18T08:28:54.599Z,88.79
2022-11-18T08:31:28.892Z,89.33
2022-11-18T08:34:02.847Z,88.40
2022-11-18T08:36:33.808Z,87.99
2022-11-18T08:39:04.748Z,88.32
2022-11-18T08:41:35.621Z,88.54
2022-11-18T08:44:05.504Z,88.29
2022-11-18T08:46:33.491Z,88.40
2022-11-18T08:49:01.462Z,89.16
2022-11-18T08:51:29.236Z,88.93
2022-11-18T08:53:57.335Z,88.15
2022-11-18T08:56:25.851Z,87.57
2022-11-18T08:58:53.791Z,87.65
2022-11-18T09:01:21.237Z,88.10
2022-11-18T09:03:49.551Z,87.36
2022-11-18T09:06:20.424Z,87.04
2022-11-18T09:08:48.595Z,86.20
2022-11-18T09:11:19.293Z,86.15
2022-11-18T09:14:32.740Z,86.01
2022-11-18T09:16:35.933Z,85.73
2022-11-18T09:19:31.590Z,85.09
2022-11-18T09:21:52.087Z,85.34
2022-11-18T09:24:19.819Z,85.85
2022-11-18T09:26:48.316Z,85.09
2022-11-18T09:29:15.602Z,84.52
2022-11-18T09:31:43.086Z,83.79
2022-11-18T09:34:10.545Z,84.13
2022-11-18T09:36:38.208Z,84.18
2022-11-18T09:39:05.656Z,84.98
2022-11-18T09:41:52.287Z,85.50
2022-11-18T09:45:19.408Z,85.43
2022-11-18T09:47:51.694Z,84.23
2022-11-18T09:53:23.806Z,84.72
2022-11-18T09:55:52.658Z,85.48
2022-11-18T09:58:28.083Z,85.55
2022-11-18T10:00:55.367Z,86.07
2022-11-18T10:03:32.730Z,85.42
2022-11-18T10:06:27.650Z,86.03
2022-11-18T10:09:11.094Z,85.92
2022-11-18T10:12:05.182Z,85.07
2022-11-18T10:14:57.364Z,85.75
2022-11-18T10:17:53.442Z,84.87
2022-11-18T10:20:44.957Z,85.94
2022-11-18T10:23:50.449Z,85.50
2022-11-18T10:26:38.482Z,85.18
2022-11-18T10:29:10.256Z,86.28
2022-11-18T10:31:40.806Z,86.74
2022-11-18T10:34:13.855Z,87.02
2022-11-18T10:36:41.374Z,86.65
2022-11-18T10:39:15.093Z,86.91
2022-11-18T10:41:49.797Z,87.12
2022-11-18T10:44:39.544Z,86.85
2022-11-18T10:47:27.441Z,86.81
2022-11-18T10:49:59.915Z,87.40
2022-11-18T10:52:30.054Z,86.80
2022-11-18T10:55:18.434Z,86.39
2022-11-18T10:57:47.650Z,86.68
2022-11-18T11:00:38.280Z,86.68
2022-11-18T11:03:37.874Z,86.07
2022-11-18T11:06:21.324Z,85.78
2022-11-18T11:09:10.189Z,85.56
2022-11-18T11:11:57.199Z,85.81
2022-11-18T11:14:52.412Z,85.99
2022-11-18T11:17:30.570Z,86.01
2022-11-18T11:20:04.393Z,87.57
2022-11-18T11:22:32.958Z,85.58
2022-11-18T11:25:00.537Z,86.56
2022-11-18T11:28:16.670Z,85.99
2022-11-18T11:31:12.836Z,84.94
2022-11-18T11:33:52.815Z,83.67
2022-11-18T11:36:57.551Z,83.48
2022-11-18T11:39:59.788Z,83.95
2022-11-18T11:42:54.103Z,83.72
2022-11-18T11:46:13.329Z,83.74
2022-11-18T11:48:56.879Z,82.92
2022-11-18T11:51:58.284Z,82.19
2022-11-18T11:54:38.032Z,83.08
2022-11-18T11:57:33.450Z,82.50
2022-11-18T12:00:09.379Z,82.79
2022-11-18T12:03:34.849Z,82.86
2022-11-18T12:06:02.358Z,82.08
2022-11-18T12:08:32.624Z,82.58
2022-11-18T12:11:25.901Z,81.53
2022-11-18T12:14:25.969Z,81.28
2022-11-18T12:17:25.108Z,81.44
2022-11-18T12:19:52.364Z,82.31
2022-11-18T12:22:19.829Z,81.81
2022-11-18T12:24:46.975Z,83.22
2022-11-18T12:27:30.441Z,82.01
2022-11-18T12:30:02.128Z,83.36
2022-11-18T12:32:46.702Z,82.65
2022-11-18T12:35:13.946Z,82.97
2022-11-18T12:37:52.178Z,82.68
2022-11-18T12:40:50.612Z,83.01
2022-11-18T12:43:44.505Z,84.00
2022-11-18T12:46:34.909Z,83.56
2022-11-18T12:49:22.654Z,84.30
2022-11-18T12:52:15.015Z,83.99
2022-11-18T12:54:49.236Z,83.46
2022-11-18T12:57:32.403Z,83.54
2022-11-18T13:00:17.188Z,83.58
2022-11-18T13:03:00.427Z,83.22
2022-11-18T13:05:32.912Z,82.75
2022-11-18T13:08:13.883Z,81.80
2022-11-18T13:11:37.319Z,81.09
2022-11-18T13:14:32.541Z,80.94
2022-11-18T13:17:18.855Z,80.44
2022-11-18T13:19:57.761Z,79.64
2022-11-18T13:22:44.021Z,79.70
2022-11-18T13:25:33.626Z,79.88
2022-11-18T13:28:31.879Z,79.56
2022-11-18T13:31:07.407Z,79.79
2022-11-18T13:33:38.607Z,78.55
2022-11-18T13:36:25.903Z,78.75
2022-11-18T13:39:03.384Z,79.12
2022-11-18T13:41:34.325Z,78.99
2022-11-18T13:44:24.267Z,78.89
2022-11-18T13:47:16.033Z,79.13
2022-11-18T13:50:11.696Z,77.71
2022-11-18T13:53:09.308Z,77.95
2022-11-18T13:55:54.221Z,78.35
2022-11-18T14:01:34.861Z,78.69
2022-11-18T14:04:22.589Z,78.42
2022-11-18T14:06:50.775Z,78.70
2022-11-18T14:09:27.178Z,78.53
2022-11-18T14:11:57.796Z,78.86
2022-11-18T14:14:43.671Z,78.79
2022-11-18T14:17:23.966Z,78.68
2022-11-18T14:19:55.420Z,78.66
2022-11-18T14:22:27.166Z,78.31
2022-11-18T14:25:17.304Z,77.73
2022-11-18T14:27:54.696Z,77.31
2022-11-18T14:30:32.348Z,77.27
2022-11-18T14:33:31.692Z,76.97
2022-11-18T14:36:13.505Z,77.36
2022-11-18T14:39:31.672Z,77.43
2022-11-18T14:41:48.673Z,77.53
2022-11-18T14:44:18.822Z,77.38
2022-11-18T14:47:03.746Z,76.94
2022-11-18T14:49:32.998Z,76.60
2022-11-18T14:52:04.711Z,76.79
2022-11-18T14:54:33.050Z,77.50
2022-11-18T14:57:05.657Z,76.98
2022-11-18T14:59:33.507Z,77.42
2022-11-18T15:02:00.996Z,76.81
2022-11-18T15:04:28.632Z,76.33
2022-11-18T15:06:56.274Z,75.73
2022-11-18T15:09:24.932Z,76.38
2022-11-18T15:11:52.169Z,75.86
2022-11-18T15:14:19.827Z,75.66
2022-11-18T15:16:47.198Z,76.15
2022-11-18T15:19:16.526Z,75.83
2022-11-18T15:21:45.680Z,75.81
2022-11-18T15:24:13.710Z,75.28
2022-11-18T15:26:46.902Z,75.54
2022-11-18T15:29:24.314Z,75.47
2022-11-18T15:31:51.952Z,75.23
2022-11-18T15:34:21.283Z,75.25
2022-11-18T15:36:49.843Z,74.63
2022-11-18T15:39:17.476Z,73.87
2022-11-18T15:41:44.753Z,74.25
2022-11-18T15:44:13.331Z,73.74
2022-11-18T15:46:40.881Z,73.35
2022-11-18T15:49:14.670Z,73.27
2022-11-18T15:51:42.233Z,74.06
2022-11-18T15:54:09.935Z,73.83
2022-11-18T15:56:38.505Z,73.58
2022-11-18T15:59:17.624Z,73.46
2022-11-18T16:01:49.173Z,73.21
2022-11-18T16:04:19.417Z,73.09
2022-11-18T16:06:47.793Z,73.22
2022-11-18T16:09:17.541Z,73.64
2022-11-18T16:12:03.513Z,73.51
2022-11-18T16:14:31.057Z,73.96
2022-11-18T16:16:58.420Z,73.63
2022-11-18T16:19:27.453Z,73.46
2022-11-18T16:21:57.214Z,78.22
2022-11-18T16:24:28.988Z,73.94
2022-11-18T16:26:57.413Z,72.57
2022-11-18T16:29:25.344Z,72.07
2022-11-18T16:34:41.851Z,72.19
2022-11-18T16:37:09.297Z,72.33
2022-11-18T16:39:36.770Z,72.48
2022-11-18T16:40:28.340Z,71.56
2022-11-18T16:42:08.640Z,71.34
2022-11-18T16:44:37.803Z,71.79
2022-11-18T16:47:13.763Z,72.09
2022-11-18T16:49:43.391Z,72.50
2022-11-18T16:52:10.704Z,71.82
2022-11-18T16:54:44.692Z,71.64
2022-11-18T16:57:13.829Z,71.29
2022-11-18T16:59:41.608Z,71.69
2022-11-18T17:02:13.416Z,71.59
2022-11-18T17:04:41.373Z,71.19
2022-11-18T17:07:08.692Z,71.22
2022-11-18T17:09:37.883Z,71.60
2022-11-18T17:12:05.673Z,71.73
2022-11-18T17:14:33.199Z,71.56
2022-11-18T17:17:00.456Z,71.93
2022-11-18T17:19:27.946Z,72.02
2022-11-18T17:21:55.111Z,71.88
2022-11-18T17:24:24.146Z,72.15
2022-11-18T17:26:52.783Z,72.27
2022-11-18T17:29:21.216Z,72.46
2022-11-18T17:31:49.123Z,73.21
2022-11-18T17:34:17.110Z,73.47
2022-11-18T17:36:44.867Z,73.36
2022-11-18T17:39:13.482Z,73.32
2022-11-18T17:41:59.405Z,73.27
2022-11-18T17:44:28.568Z,73.22
2022-11-18T17:46:56.048Z,73.26
2022-11-18T17:49:23.856Z,73.03
2022-11-18T17:51:51.747Z,72.67
2022-11-18T17:54:21.286Z,72.54
2022-11-18T17:56:52.340Z,72.28
2022-11-18T17:59:20.911Z,72.18
2022-11-18T18:01:49.918Z,72.83
2022-11-18T18:04:21.549Z,73.09
2022-11-18T18:06:51.323Z,72.44
2022-11-18T18:09:21.815Z,72.04
2022-11-18T18:11:52.578Z,72.02
2022-11-18T18:14:20.387Z,71.78
2022-11-18T18:16:50.930Z,71.51
2022-11-18T18:19:23.787Z,71.19
2022-11-18T18:21:51.093Z,71.14
2022-11-18T18:24:20.964Z,71.39
2022-11-18T18:26:49.089Z,71.08
2022-11-18T18:29:16.700Z,71.17
2022-11-18T18:31:50.635Z,71.35
2022-11-18T18:34:18.741Z,71.37
2022-11-18T18:36:46.354Z,71.61
2022-11-18T18:39:13.897Z,71.82
2022-11-18T18:41:41.153Z,71.73
2022-11-18T18:44:10.430Z,72.00
2022-11-18T18:46:40.930Z,71.61
2022-11-18T18:49:20.492Z,71.95
2022-11-18T18:51:55.571Z,72.22
2022-11-18T18:54:23.249Z,71.87
2022-11-18T18:56:50.527Z,72.41
2022-11-18T18:59:18.059Z,72.49
2022-11-18T19:01:45.579Z,72.51
2022-11-18T19:04:14.385Z,72.39
2022-11-18T19:06:54.934Z,71.83
2022-11-18T19:09:26.306Z,71.89
2022-11-18T19:12:12.766Z,71.66
2022-11-18T19:14:40.621Z,71.34
2022-11-18T19:17:12.650Z,71.86
2022-11-18T19:20:01.084Z,71.41
2022-11-18T19:22:33.427Z,71.43
2022-11-18T19:25:01.787Z,71.43
2022-11-18T19:27:30.253Z,71.59
2022-11-18T19:29:58.495Z,70.97
2022-11-18T19:32:25.985Z,70.51
2022-11-18T19:34:53.464Z,70.64
2022-11-18T19:37:20.809Z,70.84
2022-11-18T19:39:48.517Z,70.66
2022-11-18T19:42:15.912Z,70.74
2022-11-18T19:44:43.479Z,70.79
2022-11-18T19:47:11.020Z,71.05
2022-11-18T19:49:38.550Z,71.16
2022-11-18T19:52:05.789Z,71.16
2022-11-18T19:54:33.419Z,70.95
2022-11-18T19:57:03.949Z,70.96
2022-11-18T19:59:31.715Z,71.20
2022-11-18T20:01:59.187Z,71.03
2022-11-18T20:04:26.886Z,70.91
2022-11-18T20:06:54.281Z,70.96
2022-11-18T20:09:21.966Z,70.61
2022-11-18T20:11:49.572Z,70.34
2022-11-18T20:14:17.660Z,70.43
2022-11-18T20:16:44.929Z,70.16
2022-11-18T20:19:13.766Z,69.81
2022-11-18T20:21:43.469Z,69.70
2022-11-18T20:24:17.111Z,69.73
2022-11-18T20:26:45.355Z,68.92
2022-11-18T20:29:13.584Z,68.61
2022-11-18T20:31:41.699Z,68.32
2022-11-18T20:34:14.487Z,68.11
2022-11-18T20:36:42.341Z,67.06
2022-11-18T20:39:15.517Z,67.59
2022-11-18T20:41:43.711Z,67.20
2022-11-18T20:44:11.216Z,66.95
2022-11-18T20:46:38.431Z,66.52
2022-11-18T20:49:05.934Z,67.09
2022-11-18T20:51:33.188Z,66.63
2022-11-18T20:54:00.794Z,66.47
2022-11-18T20:56:28.619Z,66.67
2022-11-18T20:58:59.105Z,67.06
2022-11-18T21:01:29.710Z,66.55
2022-11-18T21:04:01.139Z,65.80
2022-11-18T21:06:31.694Z,65.49
2022-11-18T21:09:02.806Z,65.42
2022-11-18T21:11:34.725Z,65.30
2022-11-18T21:14:23.970Z,64.84
2022-11-18T21:16:55.649Z,64.78
2022-11-18T21:19:23.771Z,65.00
2022-11-18T21:21:53.910Z,64.67
2022-11-18T21:24:31.071Z,64.53
2022-11-18T21:26:59.863Z,64.75
2022-11-18T21:29:30.736Z,64.78
2022-11-18T21:32:02.267Z,64.16
2022-11-18T21:34:30.452Z,63.39
2022-11-18T21:36:58.218Z,63.62
2022-11-18T21:39:26.039Z,63.32
2022-11-18T21:41:56.790Z,63.59
2022-11-18T21:44:28.419Z,63.46
2022-11-18T21:46:56.494Z,63.63
2022-11-18T21:49:24.033Z,64.00
2022-11-18T21:51:51.244Z,63.80
2022-11-18T21:54:18.782Z,64.19
2022-11-18T21:56:46.042Z,64.84
2022-11-18T21:59:14.030Z,64.82
2022-11-18T22:01:41.201Z,65.16
2022-11-18T22:04:29.115Z,65.33
2022-11-18T22:06:56.383Z,66.10
2022-11-18T22:09:23.941Z,66.20
2022-11-18T22:11:51.057Z,66.64
2022-11-18T22:14:18.542Z,67.09
2022-11-18T22:16:45.726Z,67.72
2022-11-18T22:19:13.155Z,68.78
2022-11-18T22:21:40.321Z,68.16
2022-11-18T22:24:08.532Z,68.18
2022-11-18T22:26:35.686Z,68.28
2022-11-18T22:29:03.396Z,68.67
2022-11-18T22:31:30.754Z,68.56
2022-11-18T22:33:58.246Z,68.47
2022-11-18T22:36:26.919Z,68.65
2022-11-18T22:38:55.913Z,68.68
2022-11-18T22:41:45.344Z,68.60
2022-11-18T22:44:16.269Z,69.40
2022-11-18T22:46:45.291Z,68.99
2022-11-18T22:49:13.860Z,69.03
2022-11-18T22:51:41.412Z,68.91
2022-11-18T22:54:37.037Z,69.32
2022-11-18T22:56:57.260Z,69.38
2022-11-18T22:59:25.421Z,69.31
2022-11-18T23:01:53.064Z,69.35
2022-11-18T23:04:21.578Z,69.36
2022-11-18T23:06:49.948Z,69.30
2022-11-18T23:09:17.943Z,69.60
2022-11-18T23:12:04.348Z,69.52
2022-11-18T23:14:31.931Z,69.15
2022-11-18T23:16:59.649Z,69.63
2022-11-18T23:19:27.110Z,69.34
2022-11-18T23:21:54.230Z,69.52
2022-11-18T23:24:21.929Z,69.59
2022-11-18T23:26:49.327Z,69.60
2022-11-18T23:29:17.590Z,69.35
2022-11-18T23:31:45.639Z,69.51
2022-11-18T23:34:15.358Z,69.38
2022-11-18T23:36:42.697Z,69.11
2022-11-18T23:39:10.640Z,69.57
2022-11-18T23:41:38.716Z,69.40
2022-11-18T23:44:06.531Z,69.07
2022-11-18T23:46:34.776Z,69.09
2022-11-18T23:49:02.284Z,69.05
2022-11-18T23:51:29.527Z,68.52
2022-11-18T23:53:58.128Z,68.38
2022-11-18T23:56:27.923Z,67.83
2022-11-18T23:58:56.836Z,67.63
